Flight Track Log - Related Links

Times and Time Zones

All times are in EDT time to prevent confusion due to time zone crossing. See the FLG3723 flight status page for this flight to view local times or setup timezone preferences in your user account.

Time Position Orientation Groundspeed Altitude Reporting Facility
EDT Latitude Longitude Course Direction KTS MPH feet Rate Location/Type
Sun 05:35:33 PM 36.2069 -94.2256 93° East 270 311 5,400  Level Memphis Center
Sun 05:40:33 PM 36.1858 -93.6639 102° East 374 430 15,700 2,050 Climbing Memphis Center
Sun 05:41:33 PM 36.1639 -93.5372 100° East 374 430 17,700 1,650 Climbing Memphis Center
Sun 05:42:33 PM 36.1444 -93.4053 101° East 374 430 19,000 1,350 Climbing Memphis Center
Sun 05:43:33 PM 36.1225 -93.2708 100° East 385 443 20,400 1,150 Climbing Memphis Center
Sun 05:44:33 PM 36.1028 -93.1314 78° East 392 451 21,300 850 Climbing Memphis Center
Sun 05:45:33 PM 36.1267 -92.9961 53° Northeast 398 458 22,100 800 Climbing Memphis Center
Sun 05:46:33 PM 36.1978 -92.8800 54° Northeast 388 447 22,900 750 Climbing Memphis Center
Sun 05:47:33 PM 36.2689 -92.7586 55° Northeast 409 471 23,600 700 Climbing Memphis Center
Sun 05:48:33 PM 36.3381 -92.6344 53° Northeast 426 490 24,300 700 Climbing Memphis Center
Sun 05:49:33 PM 36.4111 -92.5128 54° Northeast 439 505 25,000 750 Climbing Memphis Center
Sun 05:50:33 PM 36.4883 -92.3806 56° Northeast 434 499 25,800 750 Climbing Memphis Center
Sun 05:51:33 PM 36.5569 -92.2556 53° Northeast 439 505 26,500 600 Climbing Memphis Center
Sun 05:52:33 PM 36.6275 -92.1383 55° Northeast 439 505 27,000 495 Climbing Memphis Center
Sun 05:54:35 PM 36.7703 -91.8819 55° Northeast 453 521 28,000 495 Climbing Kansas City Center
Sun 05:55:35 PM 36.8406 -91.7550 54° Northeast 453 521 28,500 500 Climbing Kansas City Center
Sun 05:56:35 PM 36.9147 -91.6278 56° Northeast 453 521 29,000 250 Climbing Kansas City Center
Sun 05:57:35 PM 36.9825 -91.5031 56° Northeast 448 516 29,000  Level Kansas City Center
Sun 05:58:35 PM 37.0542 -91.3700 55° Northeast 453 521 29,000  Level Kansas City Center
Sun 05:59:35 PM 37.1278 -91.2367 56° Northeast 458 527 29,000  Level Kansas City Center
Sun 06:00:35 PM 37.1992 -91.1058 56° Northeast 458 527 29,000  Level Kansas City Center
Sun 06:01:35 PM 37.2644 -90.9856 55° Northeast 467 537 29,000  Level Kansas City Center
Sun 06:02:35 PM 37.3397 -90.8514 55° Northeast 462 532 29,000  Level Kansas City Center
Sun 06:03:35 PM 37.4108 -90.7225 56° Northeast 456 525 29,000  Level Kansas City Center
Sun 06:04:35 PM 37.4836 -90.5881 57° Northeast 456 525 29,000  Level Kansas City Center
Sun 06:05:35 PM 37.5581 -90.4453 54° Northeast 455 524 29,000  Level Kansas City Center
Sun 06:06:35 PM 37.6331 -90.3153 52° Northeast 455 524 29,000  Level Kansas City Center
Sun 06:07:35 PM 37.7119 -90.1875 49° Northeast 455 524 29,000  Level Kansas City Center
Sun 06:08:35 PM 37.7969 -90.0644 50° Northeast 455 524 29,000  Level Kansas City Center
Sun 06:09:35 PM 37.8800 -89.9411 48° Northeast 455 524 29,000  Level Kansas City Center
Sun 06:10:35 PM 37.9650 -89.8225 49° Northeast 455 524 29,000  Level Kansas City Center
Sun 06:11:35 PM 38.0478 -89.7014 48° Northeast 455 524 29,000  Level Kansas City Center
Sun 06:12:35 PM 38.1306 -89.5825 49° Northeast 449 517 29,000  Level Kansas City Center
Sun 06:13:35 PM 38.2111 -89.4633 49° Northeast 449 517 29,000  Level Kansas City Center
Sun 06:14:35 PM 38.2936 -89.3414 49° Northeast 449 517 29,000  Level Kansas City Center
Sun 06:15:35 PM 38.3739 -89.2244 72° East 449 517 29,000  Level Kansas City Center
Sun 06:16:35 PM 38.4111 -89.0789 93° East 444 511 29,000  Level Kansas City Center
Sun 06:17:35 PM 38.4047 -88.9361 94° East 415 478 29,000  Level Kansas City Center
Sun 06:19:47 PM 38.3861 -88.5836 95° East 432 497 29,000  Level Indianapolis Center
Sun 06:20:47 PM 38.3758 -88.4292 94° East 437 503 29,000  Level Indianapolis Center
Sun 06:21:47 PM 38.3678 -88.2722 94° East 437 503 29,000  Level Indianapolis Center
Sun 06:22:47 PM 38.3592 -88.1181 94° East 437 503 29,000 -650 Level Indianapolis Center
Sun 06:23:47 PM 38.3503 -87.9692 95° East 442 509 27,700 -1,150 Descending Indianapolis Center
Sun 06:24:47 PM 38.3408 -87.8308 81° East 414 476 26,700 -1,000 Descending Indianapolis Center
Sun 06:25:47 PM 38.3583 -87.6861 81° East 405 466 25,700 -1,050 Descending Indianapolis Center
Sun 06:26:47 PM 38.3761 -87.5389 82° East 410 472 24,600 -1,000 Descending Indianapolis Center
Sun 06:27:47 PM 38.3908 -87.4072 81° East 397 457 23,700 -900 Descending Indianapolis Center
Sun 06:28:47 PM 38.4047 -87.2992 81° East 391 450 22,800 -950 Descending Indianapolis Center
Sun 06:29:47 PM 38.4239 -87.1517 82° East 384 442 21,800 -900 Descending Indianapolis Center
Sun 06:30:47 PM 38.4386 -87.0147 82° East 389 448 21,000 -400 Descending Indianapolis Center
Sun 06:31:47 PM 38.4528 -86.8825 81° East 384 442 21,000  Level Indianapolis Center
Sun 06:32:47 PM 38.4689 -86.7533 82° East 379 436 21,000  Level Indianapolis Center
Sun 06:33:47 PM 38.4828 -86.6214 82° East 379 436 21,000  Level Indianapolis Center
Sun 06:34:47 PM 38.4992 -86.4681 81° East 379 436 21,000  Level Indianapolis Center
Sun 06:35:47 PM 38.5172 -86.3228 82° East 393 452 21,000 -950 Level Indianapolis Center
Sun 06:36:47 PM 38.5331 -86.1747 83° East 413 475 19,100 -1,950 Descending Indianapolis Center
Sun 06:37:47 PM 38.5464 -86.0425 83° East 406 467 17,100 -2,000 Descending Indianapolis Center
Sun 06:38:47 PM 38.5594 -85.9128 82° East 385 443 15,100 -2,050 Descending Indianapolis Center
Sun 06:39:47 PM 38.5725 -85.7856 81° East 373 429 13,000 -1,850 Descending Indianapolis Center
Sun 06:40:47 PM 38.5847 -85.6850 67° East 368 423 11,400 -1,000 Descending Indianapolis Center
Sun 06:41:47 PM 38.6308 -85.5481 59° Northeast 348 400 11,000 -200 Descending Indianapolis Center
Sun 06:42:47 PM 38.6786 -85.4458 61° Northeast 358 412 11,000  Level Indianapolis Center
Sun 06:43:47 PM 38.7261 -85.3353 62° Northeast 358 412 11,000  Level Indianapolis Center
Sun 06:44:47 PM 38.7736 -85.2192 61° Northeast 358 412 11,000  Level Indianapolis Center
Sun 06:45:59 PM 38.8211 -85.1108 61° Northeast 358 412 11,000 -91 Level Indianapolis Center
Sun 06:46:59 PM 38.8811 -84.9708 61° Northeast 350 403 10,800 -700 Descending Indianapolis Center
Sun 06:47:59 PM 38.9261 -84.8650 54° Northeast 332 382 9,600 -950 Descending Indianapolis Center
Sun 06:48:59 PM 38.9686 -84.7883 North 281 323 8,900 -700 Descending Indianapolis Center
Sun 06:49:59 PM 39.0314 -84.7814 North 213 245 8,200 -1,100 Descending Indianapolis Center
Sun 06:50:59 PM 39.0981 -84.7772 359° North 225 259 6,700 -1,400 Descending Indianapolis Center
Sun 06:51:59 PM 39.1544 -84.7781 357° North 231 266 5,400 -1,250 Descending Indianapolis Center
Sun 06:52:59 PM 39.2128 -84.7817 86° East 231 266 4,200 -1,125 Descending Indianapolis Center
Sun 06:54:07 PM 39.2167 -84.7000 166° South 224 258 3,000 -703 Descending Cincinnati TRACON
Sun 06:55:07 PM 39.1667 -84.6833 180° South 205 236 2,700 -650 Descending Cincinnati TRACON
Sun 06:56:07 PM 39.1167 -84.6833 170° South 193 222 1,700 -1,000 Descending Cincinnati TRACON
Sun 07:03:32 PM 38.4042 -84.5219 170° South  Level Estimated

Login

Don't have an account? Register now (free) for customized features, flight alerts, and more!